Time;durP1;ratioP1;P1;durP2;ratioP2;P2;SDS_P1;SDS_P2;PMS_P1;PMS_P2;Temp;Humidity;BMP_temperature;BMP_pressure;BME280_temperature;BME280_humidity;BME280_pressure;Samples;Min_cycle;Max_cycle;Signal;HPM_P1;HPM_P2
2021/08/02 00:01:09;;;;;;;9.50;3.85;;;15.70;76.10;;;;;;5092271;28;20040;-92
2021/08/02 00:03:59;;;;;;;8.82;3.80;;;15.70;76.10;;;;;;5089449;28;20105;-93
2021/08/02 00:06:33;;;;;;;8.38;4.32;;;15.60;76.10;;;;;;5090793;28;20094;-92
2021/08/02 00:09:02;;;;;;;;;;;15.70;76.00;;;;;;5091388;28;20494;-93
2021/08/02 00:11:39;;;;;;;8.98;4.50;;;15.60;75.90;;;;;;5089640;28;19920;-92
2021/08/02 00:14:08;;;;;;;8.05;4.32;;;15.60;76.00;;;;;;5075805;28;20426;-95
2021/08/02 00:16:38;;;;;;;7.38;4.03;;;15.60;76.10;;;;;;5092409;28;20561;-91
2021/08/02 00:19:06;;;;;;;10.73;3.95;;;15.60;76.10;;;;;;5090579;28;20386;-95
2021/08/02 00:21:33;;;;;;;7.43;4.25;;;15.60;76.20;;;;;;5090808;28;20513;-90
2021/08/02 00:24:01;;;;;;;9.98;4.18;;;15.60;76.30;;;;;;5090947;28;20040;-94
2021/08/02 00:26:28;;;;;;;9.55;4.90;;;15.60;76.30;;;;;;5091170;28;20048;-94
2021/08/02 00:28:58;;;;;;;10.38;5.43;;;15.60;76.20;;;;;;5091135;28;20093;-92
2021/08/02 00:31:25;;;;;;;11.95;5.63;;;15.60;76.40;;;;;;5092924;28;20086;-94
2021/08/02 00:33:52;;;;;;;8.80;5.30;;;15.60;76.50;;;;;;5090590;28;20134;-92
2021/08/02 00:36:32;;;;;;;13.65;7.20;;;15.50;76.70;;;;;;5090634;28;20472;-93
2021/08/02 00:39:03;;;;;;;17.85;7.78;;;15.50;76.90;;;;;;5090859;28;20048;-92
2021/08/02 00:41:33;;;;;;;13.55;6.80;;;15.50;77.10;;;;;;5090742;28;20157;-91
2021/08/02 00:44:21;;;;;;;12.18;6.38;;;15.50;77.20;;;;;;5074727;28;20102;-92
2021/08/02 00:46:56;;;;;;;17.15;7.32;;;15.50;77.40;;;;;;5090796;28;20055;-93
2021/08/02 00:49:25;;;;;;;15.25;6.53;;;15.50;77.60;;;;;;5092356;28;20048;-94
2021/08/02 00:51:54;;;;;;;16.02;6.82;;;15.50;77.70;;;;;;5088318;28;20052;-93
2021/08/02 00:54:24;;;;;;;15.45;6.85;;;15.40;77.80;;;;;;5090447;28;20518;-94
2021/08/02 00:56:59;;;;;;;10.68;5.53;;;15.40;77.80;;;;;;5090662;28;20113;-92
2021/08/02 00:59:28;;;;;;;13.80;5.88;;;15.40;77.90;;;;;;5092576;28;20109;-95
2021/08/02 01:01:56;;;;;;;13.38;6.70;;;15.50;77.90;;;;;;5094177;28;20121;-93
2021/08/02 01:04:24;;;;;;;14.85;7.10;;;15.50;77.90;;;;;;5096525;28;20044;-94
2021/08/02 01:06:53;;;;;;;11.27;5.28;;;15.50;77.90;;;;;;5094495;28;20051;-94
2021/08/02 01:09:20;;;;;;;11.10;6.03;;;15.40;77.90;;;;;;5094441;28;20043;-94
2021/08/02 01:11:52;;;;;;;12.10;6.88;;;15.60;77.90;;;;;;5094425;28;20056;-96
2021/08/02 01:14:20;;;;;;;11.65;5.82;;;15.60;77.90;;;;;;5094416;28;20543;-94
2021/08/02 01:16:49;;;;;;;15.75;7.55;;;15.50;77.90;;;;;;5093968;28;20077;-95
2021/08/02 01:19:18;;;;;;;12.77;6.45;;;15.50;77.90;;;;;;5095242;28;20086;-93
2021/08/02 01:21:48;;;;;;;14.32;6.60;;;15.60;78.00;;;;;;5094361;28;20129;-94
2021/08/02 01:24:16;;;;;;;16.20;6.57;;;15.60;78.10;;;;;;5093810;28;20040;-92
2021/08/02 01:26:43;;;;;;;13.38;6.28;;;15.50;78.10;;;;;;5093653;28;20555;-93
2021/08/02 01:29:47;;;;;;;15.32;7.00;;;15.60;78.20;;;;;;5092947;28;20469;-93
2021/08/02 01:32:15;;;;;;;15.05;6.90;;;15.50;78.30;;;;;;5078453;28;20052;-92
2021/08/02 01:34:43;;;;;;;13.48;7.35;;;15.60;78.40;;;;;;5095066;28;20051;-93
2021/08/02 01:37:11;;;;;;;16.00;7.80;;;15.50;78.50;;;;;;5095964;28;20048;-93
2021/08/02 01:39:43;;;;;;;14.10;6.72;;;15.50;78.50;;;;;;5093566;28;20044;-94
2021/08/02 01:42:09;;;;;;;15.30;7.47;;;15.50;78.70;;;;;;5093727;28;20040;-93
2021/08/02 01:44:36;;;;;;;13.13;6.80;;;15.50;78.70;;;;;;5093602;28;20048;-92
2021/08/02 01:47:22;;;;;;;16.50;6.95;;;15.60;78.80;;;;;;5093357;28;20090;-94
2021/08/02 01:49:58;;;;;;;14.35;7.32;;;15.60;78.80;;;;;;5093555;28;20047;-94
2021/08/02 01:52:32;;;;;;;15.82;7.40;;;15.60;78.80;;;;;;5096528;28;20572;-92
2021/08/02 01:55:06;;;;;;;17.08;6.63;;;15.50;78.80;;;;;;5094446;28;20140;-95
2021/08/02 01:58:02;;;;;;;15.32;7.43;;;15.50;78.80;;;;;;5093251;28;20040;-94
2021/08/02 02:00:33;;;;;;;12.60;7.30;;;15.50;78.80;;;;;;5092761;28;20048;-93
2021/08/02 02:03:21;;;;;;;15.98;6.95;;;15.50;78.80;;;;;;5093450;28;20413;-93
2021/08/02 02:05:59;;;;;;;9.65;6.10;;;15.50;78.90;;;;;;5093061;28;20575;-93
2021/08/02 02:08:37;;;;;;;11.20;6.68;;;15.50;78.90;;;;;;5092039;28;20081;-93
2021/08/02 02:11:05;;;;;;;13.43;6.82;;;15.50;78.90;;;;;;5077270;28;20571;-95
2021/08/02 02:13:38;;;;;;;14.63;7.07;;;15.50;78.90;;;;;;5095187;28;20450;-93
2021/08/02 02:16:06;;;;;;;14.27;6.40;;;15.50;78.90;;;;;;5091452;28;20058;-93
2021/08/02 02:18:36;;;;;;;12.52;6.53;;;15.50;78.90;;;;;;5093025;28;20113;-93
2021/08/02 02:21:04;;;;;;;12.75;6.78;;;15.50;79.00;;;;;;5092744;28;20093;-93
2021/08/02 02:23:32;;;;;;;14.95;6.75;;;15.50;79.00;;;;;;5091870;28;20105;-93
2021/08/02 02:26:00;;;;;;;12.18;6.53;;;15.50;79.00;;;;;;5093212;28;20097;-92
2021/08/02 02:28:28;;;;;;;14.80;7.00;;;15.40;79.00;;;;;;5094021;28;20059;-92
2021/08/02 02:30:56;;;;;;;16.25;6.78;;;15.40;79.10;;;;;;5092945;28;20044;-92
2021/08/02 02:33:25;;;;;;;16.20;7.43;;;15.50;79.20;;;;;;5092577;28;20051;-94
2021/08/02 02:35:52;;;;;;;13.48;7.65;;;15.50;79.20;;;;;;5092385;28;20075;-94
2021/08/02 02:38:20;;;;;;;14.75;7.43;;;15.50;79.40;;;;;;5092324;28;20077;-93
2021/08/02 02:40:47;;;;;;;12.68;7.28;;;15.50;79.50;;;;;;5092752;28;20097;-93
2021/08/02 02:43:18;;;;;;;16.08;7.22;;;15.40;79.60;;;;;;5091893;28;20048;-93
2021/08/02 02:45:47;;;;;;;17.15;7.60;;;15.40;79.60;;;;;;5092373;28;20044;-91
2021/08/02 02:48:16;;;;;;;18.33;7.53;;;15.40;79.70;;;;;;5089762;28;20040;-93
2021/08/02 02:50:46;;;;;;;15.27;6.53;;;15.40;79.80;;;;;;5092186;28;20044;-91
2021/08/02 02:53:16;;;;;;;16.77;8.18;;;15.40;79.80;;;;;;5090058;28;20048;-93
2021/08/02 02:55:45;;;;;;;18.90;7.82;;;15.40;79.90;;;;;;5092812;28;20421;-92
2021/08/02 02:58:12;;;;;;;19.17;8.45;;;15.40;79.90;;;;;;5091864;28;20125;-91
2021/08/02 03:00:39;;;;;;;17.48;8.57;;;15.40;80.00;;;;;;5091962;28;20460;-93
2021/08/02 03:03:09;;;;;;;15.10;7.55;;;15.40;80.10;;;;;;5091910;28;20490;-92
2021/08/02 03:05:38;;;;;;;15.60;7.90;;;15.40;80.20;;;;;;5091949;28;20054;-95
2021/08/02 03:08:06;;;;;;;15.57;7.35;;;15.40;80.20;;;;;;5090935;28;20510;-94
2021/08/02 03:10:35;;;;;;;17.15;8.30;;;15.40;80.30;;;;;;5093485;28;20551;-91
2021/08/02 03:13:02;;;;;;;13.98;7.28;;;15.40;80.40;;;;;;5091035;28;20060;-94
2021/08/02 03:15:28;;;;;;;16.15;7.50;;;15.40;80.40;;;;;;5091744;28;20041;-92
2021/08/02 03:17:55;;;;;;;14.00;7.10;;;15.40;80.30;;;;;;5091510;28;20113;-91
2021/08/02 03:20:22;;;;;;;15.07;7.55;;;15.40;80.40;;;;;;5091467;28;20048;-91
2021/08/02 03:22:56;;;;;;;14.88;8.10;;;15.40;80.40;;;;;;5090543;28;20101;-91
2021/08/02 03:25:32;;;;;;;15.95;7.22;;;15.40;80.50;;;;;;5093629;28;20452;-92
2021/08/02 03:28:09;;;;;;;18.77;8.15;;;15.40;80.60;;;;;;5088801;28;20559;-92
2021/08/02 03:30:39;;;;;;;16.08;8.15;;;15.40;80.60;;;;;;5090405;28;20048;-90
2021/08/02 03:33:12;;;;;;;14.73;7.07;;;15.40;80.70;;;;;;5091079;28;20055;-90
2021/08/02 03:35:43;;;;;;;16.67;8.50;;;15.50;80.70;;;;;;5091136;28;20107;-91
2021/08/02 03:38:13;;;;;;;13.20;7.38;;;15.40;80.80;;;;;;5090996;28;20085;-91
2021/08/02 03:40:45;;;;;;;19.70;8.32;;;15.50;80.90;;;;;;5092182;28;20048;-90
2021/08/02 03:43:14;;;;;;;11.18;6.80;;;15.40;80.90;;;;;;5089624;28;20664;-88
2021/08/02 03:45:42;;;;;;;15.93;8.43;;;15.50;81.00;;;;;;5090933;28;20106;-91
2021/08/02 03:48:10;;;;;;;18.33;9.35;;;15.50;81.00;;;;;;5090651;28;20094;-92
2021/08/02 03:50:37;;;;;;;17.15;8.35;;;15.40;81.10;;;;;;5091055;28;20048;-92
2021/08/02 03:53:05;;;;;;;16.65;7.97;;;15.50;81.10;;;;;;5091044;28;20472;-91
2021/08/02 03:55:34;;;;;;;16.40;8.30;;;15.50;81.20;;;;;;5094500;28;20611;-95
2021/08/02 03:58:02;;;;;;;14.98;7.68;;;15.50;81.20;;;;;;5096658;28;20459;-92
2021/08/02 04:00:29;;;;;;;16.05;8.25;;;15.50;81.30;;;;;;5101283;28;20065;-94
2021/08/02 04:02:56;;;;;;;17.35;8.50;;;15.50;81.30;;;;;;5100086;28;20104;-94
2021/08/02 04:05:23;;;;;;;20.08;9.15;;;15.50;81.30;;;;;;5092782;28;20129;-93
2021/08/02 04:07:50;;;;;;;18.70;8.60;;;15.50;81.30;;;;;;5092143;28;20101;-94
2021/08/02 04:10:17;;;;;;;16.40;7.72;;;15.50;81.40;;;;;;5093994;28;20048;-94
2021/08/02 04:12:44;;;;;;;20.17;9.77;;;15.50;81.40;;;;;;5091859;28;20044;-94
2021/08/02 04:15:11;;;;;;;13.68;7.32;;;15.50;81.50;;;;;;5091339;28;20061;-95
2021/08/02 04:17:38;;;;;;;19.48;8.25;;;15.60;81.50;;;;;;5092216;28;20583;-93
2021/08/02 04:20:06;;;;;;;21.15;8.68;;;15.50;81.50;;;;;;5091591;28;20048;-94
2021/08/02 04:22:34;;;;;;;15.90;8.15;;;15.50;81.50;;;;;;5093280;28;20048;-91
2021/08/02 04:25:01;;;;;;;15.60;7.97;;;15.60;81.60;;;;;;5089009;28;20094;-93
2021/08/02 04:27:28;;;;;;;15.13;8.02;;;15.60;81.60;;;;;;5091301;28;20093;-93
2021/08/02 04:29:55;;;;;;;16.60;7.75;;;15.60;81.60;;;;;;5092075;28;20102;-93
2021/08/02 04:32:22;;;;;;;17.38;8.80;;;15.60;81.60;;;;;;5091355;28;20056;-95
2021/08/02 04:34:48;;;;;;;14.35;7.57;;;15.50;81.60;;;;;;5093903;28;20048;-94
2021/08/02 04:37:15;;;;;;;17.38;8.10;;;15.50;81.60;;;;;;5097916;28;20139;-95
2021/08/02 04:39:42;;;;;;;21.83;7.80;;;15.50;81.60;;;;;;5094431;28;20090;-93
2021/08/02 04:42:10;;;;;;;22.58;9.65;;;15.50;81.60;;;;;;5095335;28;20052;-93
2021/08/02 04:44:36;;;;;;;15.75;7.97;;;15.50;81.60;;;;;;5093232;28;20052;-92
2021/08/02 04:47:04;;;;;;;21.73;9.20;;;15.50;81.60;;;;;;5094749;28;20052;-90
2021/08/02 04:49:31;;;;;;;13.68;7.45;;;15.50;81.60;;;;;;5096698;28;20048;-93
2021/08/02 04:51:57;;;;;;;18.88;8.63;;;15.50;81.60;;;;;;5091938;28;20563;-94
2021/08/02 04:54:24;;;;;;;17.92;7.82;;;15.50;81.50;;;;;;5094165;28;20567;-93
2021/08/02 04:56:51;;;;;;;18.70;8.27;;;15.40;81.50;;;;;;5094524;28;20040;-90
2021/08/02 04:59:18;;;;;;;20.05;8.80;;;15.50;81.50;;;;;;5094724;28;20077;-95
2021/08/02 05:01:45;;;;;;;24.27;9.65;;;15.50;81.50;;;;;;5095013;28;20090;-93
2021/08/02 05:04:12;;;;;;;20.88;9.38;;;15.40;81.50;;;;;;5097401;28;20074;-93
2021/08/02 05:06:39;;;;;;;17.83;9.88;;;15.40;81.60;;;;;;5094396;28;20425;-94
2021/08/02 05:09:06;;;;;;;21.05;9.73;;;15.40;81.70;;;;;;5094857;28;20085;-94
2021/08/02 05:11:33;;;;;;;22.40;10.13;;;15.40;81.80;;;;;;5095416;28;20044;-89
2021/08/02 05:13:59;;;;;;;21.30;9.50;;;15.40;81.80;;;;;;5094966;28;20060;-94
2021/08/02 05:16:26;;;;;;;21.58;9.50;;;15.40;81.90;;;;;;5100109;28;20048;-91
2021/08/02 05:18:53;;;;;;;24.00;9.80;;;15.40;82.00;;;;;;5093996;28;20386;-89
2021/08/02 05:21:20;;;;;;;26.33;10.15;;;15.40;82.00;;;;;;5094117;28;20097;-91
2021/08/02 05:23:47;;;;;;;21.27;9.98;;;15.40;82.10;;;;;;5092007;28;20460;-91
2021/08/02 05:26:14;;;;;;;25.15;10.20;;;15.40;82.20;;;;;;5093969;28;20471;-93
2021/08/02 05:28:41;;;;;;;16.02;9.73;;;15.40;82.30;;;;;;5095057;28;20461;-91
2021/08/02 05:31:08;;;;;;;28.58;10.93;;;15.40;82.30;;;;;;5094933;28;20505;-90
2021/08/02 05:33:35;;;;;;;22.40;10.63;;;15.40;82.40;;;;;;5093464;28;20079;-89
2021/08/02 05:36:03;;;;;;;23.23;9.85;;;15.40;82.50;;;;;;5092314;28;20523;-91
2021/08/02 05:38:31;;;;;;;24.05;10.63;;;15.50;82.50;;;;;;5093359;28;20101;-91
2021/08/02 05:40:58;;;;;;;21.27;9.95;;;15.50;82.60;;;;;;5093508;28;20044;-92
2021/08/02 05:43:25;;;;;;;25.67;11.52;;;15.50;82.70;;;;;;5095813;28;20509;-93
2021/08/02 05:45:52;;;;;;;27.77;11.55;;;15.60;82.70;;;;;;5092230;28;20044;-91
2021/08/02 05:48:20;;;;;;;24.13;12.55;;;15.60;82.80;;;;;;5093290;28;20040;-93
2021/08/02 05:50:47;;;;;;;24.00;11.48;;;15.70;82.90;;;;;;5093096;28;20486;-92
2021/08/02 05:53:13;;;;;;;21.33;11.38;;;15.70;83.10;;;;;;5093289;28;20048;-91
2021/08/02 05:55:41;;;;;;;25.65;11.80;;;15.80;83.10;;;;;;5094300;28;20113;-90
2021/08/02 05:58:08;;;;;;;25.77;10.80;;;15.80;83.20;;;;;;5093278;28;20044;-90
2021/08/02 06:00:35;;;;;;;23.25;10.77;;;15.90;83.20;;;;;;5121318;27;20415;-92
2021/08/02 06:03:02;;;;;;;29.00;10.05;;;15.90;83.20;;;;;;5092081;28;20040;-92
2021/08/02 06:05:29;;;;;;;17.35;9.15;;;15.90;83.30;;;;;;5092684;28;20044;-86
2021/08/02 06:07:56;;;;;;;15.73;9.18;;;15.90;83.30;;;;;;5091927;28;20047;-90
2021/08/02 06:10:23;;;;;;;14.25;8.75;;;15.90;83.20;;;;;;5094685;28;20490;-89
2021/08/02 06:12:49;;;;;;;13.32;7.85;;;15.90;83.20;;;;;;5092387;28;20086;-89
2021/08/02 06:15:17;;;;;;;13.63;8.40;;;16.00;83.30;;;;;;5092046;28;20044;-89
2021/08/02 06:17:44;;;;;;;16.20;8.32;;;16.00;83.20;;;;;;5091980;28;20055;-87
2021/08/02 06:20:11;;;;;;;13.40;7.18;;;16.00;83.20;;;;;;5090955;28;20049;-89
2021/08/02 06:22:38;;;;;;;8.13;5.68;;;16.00;83.10;;;;;;5092993;28;20048;-89
2021/08/02 06:25:06;;;;;;;15.73;5.82;;;16.00;83.10;;;;;;5090578;28;20052;-88
2021/08/02 06:27:34;;;;;;;10.60;5.00;;;16.00;82.90;;;;;;5091990;28;20043;-87
2021/08/02 06:30:01;;;;;;;10.88;3.70;;;16.00;82.90;;;;;;5091685;28;20043;-88
2021/08/02 06:32:29;;;;;;;6.38;3.67;;;16.00;82.80;;;;;;5091684;28;20452;-88
2021/08/02 06:34:56;;;;;;;7.88;3.90;;;16.00;82.80;;;;;;5086244;28;20059;-91
2021/08/02 06:37:24;;;;;;;10.30;4.15;;;16.00;82.70;;;;;;5093334;28;20056;-86
2021/08/02 06:39:51;;;;;;;6.38;3.90;;;16.00;82.70;;;;;;5091958;28;20055;-87
2021/08/02 06:42:18;;;;;;;12.77;4.20;;;16.00;82.50;;;;;;5096513;28;20101;-88
2021/08/02 06:44:45;;;;;;;12.35;4.25;;;16.00;82.50;;;;;;5091074;28;20047;-88
2021/08/02 06:47:12;;;;;;;6.40;4.00;;;15.90;82.30;;;;;;5086231;28;20453;-88
2021/08/02 06:49:39;;;;;;;7.63;4.38;;;15.90;82.30;;;;;;5091020;28;20044;-89
2021/08/02 06:52:06;;;;;;;8.15;4.50;;;15.90;82.30;;;;;;5092794;28;20044;-88
2021/08/02 06:54:33;;;;;;;6.65;3.95;;;16.00;82.30;;;;;;5092940;28;20582;-88
2021/08/02 06:57:00;;;;;;;11.60;4.63;;;15.90;82.20;;;;;;5088977;28;20086;-90
2021/08/02 06:59:27;;;;;;;8.25;5.00;;;15.90;82.20;;;;;;5088274;28;20067;-90
2021/08/02 07:01:54;;;;;;;8.18;4.60;;;15.90;82.20;;;;;;5087883;28;20053;-88
2021/08/02 07:04:21;;;;;;;8.30;4.55;;;16.00;82.20;;;;;;5090388;28;20048;-88
2021/08/02 07:06:48;;;;;;;7.25;3.90;;;16.00;82.10;;;;;;5089625;28;20052;-90
2021/08/02 07:09:15;;;;;;;7.72;4.38;;;16.00;82.00;;;;;;5089701;28;20467;-92
2021/08/02 07:11:42;;;;;;;8.63;4.25;;;16.00;81.90;;;;;;5090279;28;20048;-91
2021/08/02 07:14:09;;;;;;;8.95;4.68;;;16.00;81.90;;;;;;5090231;28;20051;-93
2021/08/02 07:16:36;;;;;;;9.85;4.90;;;16.10;82.00;;;;;;5091234;28;20048;-91
2021/08/02 07:19:03;;;;;;;8.77;4.30;;;16.10;81.80;;;;;;5089690;28;20461;-92
2021/08/02 07:21:30;;;;;;;7.82;4.10;;;16.10;81.50;;;;;;5088251;28;20044;-93
2021/08/02 07:23:57;;;;;;;8.38;4.32;;;16.20;81.40;;;;;;5089976;28;20040;-92
2021/08/02 07:26:25;;;;;;;8.60;4.70;;;16.20;81.40;;;;;;5089304;28;20063;-92
2021/08/02 07:28:57;;;;;;;8.27;4.50;;;16.20;81.30;;;;;;5087791;28;20055;-93
2021/08/02 07:31:25;;;;;;;8.48;4.10;;;16.30;81.30;;;;;;5091805;28;20059;-88
2021/08/02 07:33:52;;;;;;;7.93;4.25;;;16.30;81.30;;;;;;5098568;28;20047;-93
2021/08/02 07:36:20;;;;;;;10.55;4.47;;;16.40;81.20;;;;;;5089832;28;20086;-91
2021/08/02 07:38:47;;;;;;;12.05;5.00;;;16.40;81.20;;;;;;5089658;28;20043;-91
2021/08/02 07:41:15;;;;;;;8.57;4.95;;;16.40;81.00;;;;;;5090289;28;20105;-89
2021/08/02 07:43:44;;;;;;;9.65;4.75;;;16.50;80.80;;;;;;5091242;28;20513;-95
2021/08/02 07:46:14;;;;;;;11.55;5.00;;;16.60;80.70;;;;;;5101437;28;20131;-93
2021/08/02 07:48:41;;;;;;;8.68;4.93;;;16.60;80.60;;;;;;5090417;28;20056;-92
2021/08/02 07:51:08;;;;;;;7.32;3.83;;;16.60;80.40;;;;;;5117966;27;20037;-91
2021/08/02 07:53:35;;;;;;;6.10;3.80;;;16.70;79.60;;;;;;5077632;28;20497;-90
2021/08/02 07:56:02;;;;;;;6.78;4.57;;;16.70;79.20;;;;;;5073920;28;20044;-94
2021/08/02 07:58:30;;;;;;;13.32;4.10;;;16.80;79.30;;;;;;5086957;28;20059;-92
2021/08/02 08:00:57;;;;;;;8.20;3.45;;;16.80;79.30;;;;;;5090348;28;20044;-93
2021/08/02 08:03:25;;;;;;;4.88;3.20;;;16.90;79.20;;;;;;5088201;28;20040;-93
2021/08/02 08:05:53;;;;;;;6.63;3.30;;;16.90;79.00;;;;;;5089057;28;20051;-95
2021/08/02 08:08:20;;;;;;;5.43;2.83;;;17.00;78.70;;;;;;5087995;28;20044;-90
2021/08/02 08:10:48;;;;;;;5.32;2.70;;;17.10;78.40;;;;;;5093214;28;20041;-88
2021/08/02 08:13:15;;;;;;;7.50;2.55;;;17.30;78.20;;;;;;5093754;28;20055;-89
2021/08/02 08:15:42;;;;;;;5.32;2.50;;;17.40;77.60;;;;;;5094811;28;20090;-91
2021/08/02 08:18:10;;;;;;;7.82;2.70;;;17.40;76.80;;;;;;5093788;28;20413;-89
2021/08/02 08:20:37;;;;;;;6.15;2.72;;;17.50;76.10;;;;;;5093749;28;20464;-87
2021/08/02 08:23:03;;;;;;;5.20;2.63;;;17.60;75.90;;;;;;5102547;28;20098;-92
2021/08/02 08:25:31;;;;;;;4.68;2.20;;;17.70;75.70;;;;;;5096640;28;20047;-91
2021/08/02 08:27:58;;;;;;;6.85;2.15;;;17.70;75.60;;;;;;5093221;28;20127;-88
2021/08/02 08:30:25;;;;;;;6.50;2.72;;;17.80;75.50;;;;;;5093410;28;20109;-90
2021/08/02 08:32:52;;;;;;;6.38;2.38;;;17.90;75.30;;;;;;5093133;28;20043;-92
2021/08/02 08:35:20;;;;;;;5.63;2.00;;;18.00;75.20;;;;;;5093292;28;20101;-89
2021/08/02 08:37:47;;;;;;;6.22;2.58;;;18.10;75.20;;;;;;5094954;28;20060;-88
2021/08/02 08:40:14;;;;;;;5.47;2.45;;;18.30;74.80;;;;;;5094066;28;20109;-88
2021/08/02 08:42:42;;;;;;;4.38;2.00;;;18.40;74.50;;;;;;5093850;28;20044;-88
2021/08/02 08:45:11;;;;;;;4.65;2.20;;;18.50;74.20;;;;;;5092847;28;20421;-92
2021/08/02 08:47:38;;;;;;;5.55;2.05;;;18.70;73.80;;;;;;5093999;28;20101;-91
2021/08/02 08:50:07;;;;;;;6.55;2.17;;;18.90;73.70;;;;;;5094023;28;20053;-87
2021/08/02 08:52:36;;;;;;;7.10;1.73;;;19.00;72.80;;;;;;5094566;28;20048;-89
2021/08/02 08:55:12;;;;;;;6.20;2.25;;;19.10;72.00;;;;;;5093001;28;20048;-88
2021/08/02 08:57:40;;;;;;;7.20;1.70;;;19.30;71.40;;;;;;5093744;28;20521;-89
2021/08/02 09:00:20;;;;;;;6.20;2.20;;;19.40;70.90;;;;;;5093461;28;20044;-88
2021/08/02 09:02:47;;;;;;;4.40;1.80;;;19.50;69.90;;;;;;5090707;28;20048;-87
2021/08/02 09:05:15;;;;;;;7.07;1.80;;;19.60;69.60;;;;;;5093337;28;20477;-87
2021/08/02 09:07:44;;;;;;;3.15;1.70;;;19.60;69.50;;;;;;5094624;28;20105;-92
2021/08/02 09:10:17;;;;;;;5.15;2.03;;;19.70;69.00;;;;;;5095504;28;20052;-94
2021/08/02 09:13:06;;;;;;;4.57;1.92;;;19.70;68.70;;;;;;5095040;28;20083;-96
2021/08/02 09:15:42;;;;;;;6.25;1.75;;;19.80;68.50;;;;;;5106274;28;20048;-95
2021/08/02 09:18:10;;;;;;;4.18;1.92;;;19.80;68.70;;;;;;5093447;28;20044;-93
2021/08/02 09:20:37;;;;;;;3.60;1.80;;;19.80;68.70;;;;;;5093053;28;20097;-89
2021/08/02 09:23:15;;;;;;;6.03;1.85;;;19.80;67.90;;;;;;5091950;28;20048;-87
2021/08/02 09:25:54;;;;;;;3.67;1.48;;;19.90;67.50;;;;;;5094115;28;20051;-90
2021/08/02 09:28:24;;;;;;;3.83;1.67;;;19.90;67.40;;;;;;5094062;28;20494;-92
2021/08/02 09:30:56;;;;;;;4.07;1.52;;;19.90;67.40;;;;;;5093064;28;20051;-90
2021/08/02 09:33:25;;;;;;;5.97;1.95;;;19.90;67.50;;;;;;5086445;28;20052;-89
2021/08/02 09:35:53;;;;;;;5.50;1.50;;;19.90;67.70;;;;;;5090094;28;20040;-87
2021/08/02 09:38:23;;;;;;;4.38;1.52;;;19.90;67.80;;;;;;5092550;28;20052;-89
2021/08/02 09:40:54;;;;;;;4.65;1.42;;;19.90;67.60;;;;;;5092917;28;20058;-89
2021/08/02 09:43:27;;;;;;;3.80;1.50;;;20.00;67.40;;;;;;5093800;28;20058;-89
2021/08/02 09:46:04;;;;;;;3.70;1.55;;;20.00;66.90;;;;;;5091621;28;20055;-89
2021/08/02 09:48:35;;;;;;;3.17;1.30;;;20.00;66.30;;;;;;5090878;28;20044;-88
2021/08/02 09:51:14;;;;;;;5.78;1.50;;;20.10;66.00;;;;;;5093415;28;20052;-88
2021/08/02 09:53:47;;;;;;;4.53;1.55;;;20.10;66.10;;;;;;5092439;28;20048;-89
2021/08/02 09:56:16;;;;;;;6.13;1.38;;;20.20;65.70;;;;;;5091111;28;20048;-89
2021/08/02 09:59:00;;;;;;;4.40;1.58;;;20.30;65.80;;;;;;5091702;28;20079;-89
2021/08/02 10:01:27;;;;;;;4.15;1.60;;;20.30;65.90;;;;;;5094450;28;20044;-94
2021/08/02 10:03:55;;;;;;;7.75;1.80;;;20.40;65.80;;;;;;5092158;28;20052;-90
2021/08/02 10:06:23;;;;;;;8.02;1.70;;;20.40;65.70;;;;;;5091684;28;20505;-89
2021/08/02 10:08:50;;;;;;;4.05;1.42;;;20.40;65.50;;;;;;5120111;27;20568;-88
2021/08/02 10:11:17;;;;;;;3.03;1.25;;;20.50;65.30;;;;;;5092104;28;20066;-87
2021/08/02 10:13:45;;;;;;;3.65;1.48;;;20.50;65.20;;;;;;5091965;28;20044;-87
2021/08/02 10:16:19;;;;;;;6.15;1.45;;;20.50;64.80;;;;;;5092142;28;20494;-88
2021/08/02 10:18:51;;;;;;;5.53;1.60;;;20.50;64.90;;;;;;5091587;28;20062;-90
2021/08/02 10:21:19;;;;;;;5.60;1.45;;;20.50;65.20;;;;;;5091312;28;20554;-88
2021/08/02 10:23:47;;;;;;;5.72;1.58;;;20.50;65.20;;;;;;5090361;28;20079;-92
2021/08/02 10:26:17;;;;;;;6.80;1.58;;;20.50;64.70;;;;;;5091519;28;20040;-89
2021/08/02 10:28:55;;;;;;;6.75;1.50;;;20.50;64.60;;;;;;5092895;28;20099;-88
2021/08/02 10:31:25;;;;;;;3.72;1.23;;;20.50;64.70;;;;;;5092391;28;20187;-89
2021/08/02 10:34:12;;;;;;;4.18;1.60;;;20.50;64.40;;;;;;5089444;28;20051;-88
2021/08/02 10:36:40;;;;;;;3.65;1.33;;;20.50;64.60;;;;;;5090891;28;20091;-91
2021/08/02 10:39:07;;;;;;;4.88;1.48;;;20.50;64.80;;;;;;5092378;28;20059;-90
2021/08/02 10:41:34;;;;;;;5.25;1.42;;;20.50;64.70;;;;;;5093159;28;20498;-94
2021/08/02 10:44:13;;;;;;;4.18;1.75;;;20.50;64.70;;;;;;5092044;28;20053;-92
2021/08/02 10:46:41;;;;;;;5.07;1.38;;;20.50;64.90;;;;;;5092798;28;20102;-92
2021/08/02 10:49:11;;;;;;;6.22;1.55;;;20.50;65.20;;;;;;5094452;28;20087;-91
2021/08/02 10:51:54;;;;;;;4.35;1.35;;;20.60;65.30;;;;;;5091508;28;20047;-86
2021/08/02 10:54:22;;;;;;;4.63;1.50;;;20.60;65.20;;;;;;5091273;28;20452;-87
2021/08/02 10:56:50;;;;;;;10.57;1.95;;;20.60;65.30;;;;;;5089506;28;20048;-88
2021/08/02 10:59:18;;;;;;;5.85;1.60;;;20.60;65.30;;;;;;5090062;28;20498;-87
2021/08/02 11:01:51;;;;;;;4.53;1.30;;;20.60;65.00;;;;;;5091722;28;20044;-88
2021/08/02 11:04:21;;;;;;;4.88;1.42;;;20.60;64.80;;;;;;5090631;28;20101;-88
2021/08/02 11:06:53;;;;;;;4.47;1.50;;;20.60;65.00;;;;;;5089845;28;20114;-88
2021/08/02 11:09:31;;;;;;;4.88;1.50;;;20.70;64.90;;;;;;5090997;28;20051;-88
2021/08/02 11:12:13;;;;;;;6.55;1.75;;;20.80;64.80;;;;;;5090567;28;20048;-87
2021/08/02 11:14:51;;;;;;;3.85;1.50;;;20.70;64.20;;;;;;5089637;28;20383;-87
2021/08/02 11:17:25;;;;;;;4.88;1.50;;;20.80;63.70;;;;;;5090980;28;20067;-88
2021/08/02 11:20:12;;;;;;;3.03;1.30;;;20.80;63.50;;;;;;5075029;28;20145;-87
2021/08/02 11:22:55;;;;;;;5.03;1.67;;;20.90;63.30;;;;;;5092141;28;20052;-88
2021/08/02 11:25:28;;;;;;;6.68;1.40;;;20.90;63.10;;;;;;5092071;28;20052;-87
2021/08/02 11:27:59;;;;;;;5.38;1.73;;;20.90;63.10;;;;;;5089640;28;20052;-90
2021/08/02 11:30:28;;;;;;;3.10;1.35;;;20.90;63.40;;;;;;5090581;28;20097;-88
2021/08/02 11:32:56;;;;;;;6.03;1.48;;;21.00;63.40;;;;;;5090789;28;20043;-88
2021/08/02 11:35:37;;;;;;;6.25;1.42;;;21.00;63.40;;;;;;5090705;28;20123;-88
2021/08/02 11:38:04;;;;;;;4.80;1.67;;;21.00;63.40;;;;;;5075026;28;20059;-91
2021/08/02 11:40:37;;;;;;;5.80;1.70;;;21.10;63.60;;;;;;5091357;28;20135;-89
2021/08/02 11:43:05;;;;;;;5.93;1.40;;;21.10;63.70;;;;;;5088273;28;20051;-89
2021/08/02 11:45:33;;;;;;;5.45;1.80;;;21.10;63.70;;;;;;5090061;28;20452;-88
2021/08/02 11:48:06;;;;;;;4.30;1.67;;;21.20;63.80;;;;;;5090418;28;20513;-89
2021/08/02 11:50:33;;;;;;;8.55;1.58;;;21.20;63.50;;;;;;5090405;28;20044;-89
2021/08/02 11:53:03;;;;;;;4.72;1.60;;;21.30;63.30;;;;;;5089657;28;20062;-89
2021/08/02 11:55:31;;;;;;;9.07;1.35;;;21.30;62.80;;;;;;5087785;28;20056;-90
2021/08/02 11:58:01;;;;;;;4.93;1.65;;;21.30;62.60;;;;;;5090970;28;20417;-89
2021/08/02 12:00:28;;;;;;;6.30;1.38;;;21.40;62.60;;;;;;5087889;28;20052;-89
2021/08/02 12:03:08;;;;;;;5.15;1.63;;;21.40;62.80;;;;;;5089079;28;20044;-88
2021/08/02 12:05:39;;;;;;;3.53;1.33;;;21.40;62.80;;;;;;5090307;28;20445;-88
2021/08/02 12:08:15;;;;;;;6.43;1.55;;;21.40;62.90;;;;;;5074884;28;20045;-87
2021/08/02 12:10:59;;;;;;;6.65;1.73;;;21.40;62.70;;;;;;5089878;28;20127;-86
2021/08/02 12:13:47;;;;;;;9.05;1.90;;;21.40;62.40;;;;;;5091884;28;20040;-89
2021/08/02 12:16:29;;;;;;;5.53;1.45;;;21.50;62.30;;;;;;5090236;28;20184;-87
2021/08/02 12:19:06;;;;;;;4.53;1.60;;;21.50;61.60;;;;;;5089899;28;20417;-87
2021/08/02 12:21:33;;;;;;;5.45;1.40;;;21.50;61.20;;;;;;5089894;28;20048;-87
2021/08/02 12:24:10;;;;;;;4.03;1.60;;;21.60;61.30;;;;;;5089750;28;20043;-88
2021/08/02 12:26:47;;;;;;;3.60;1.48;;;21.60;61.30;;;;;;5090251;28;20048;-90
2021/08/02 12:29:28;;;;;;;5.78;1.60;;;21.70;61.60;;;;;;5074475;28;20040;-87
2021/08/02 12:32:01;;;;;;;5.38;1.95;;;21.70;61.40;;;;;;5089916;28;20044;-87
2021/08/02 12:34:29;;;;;;;4.63;1.45;;;21.80;61.00;;;;;;5091893;28;20044;-88
2021/08/02 12:36:58;;;;;;;5.45;1.60;;;21.80;60.80;;;;;;5089640;28;20060;-87
2021/08/02 12:39:27;;;;;;;4.07;1.52;;;21.90;61.10;;;;;;5088571;28;20063;-89
2021/08/02 12:41:54;;;;;;;3.88;1.50;;;21.90;61.20;;;;;;5089918;28;20047;-88
2021/08/02 12:44:24;;;;;;;8.00;2.10;;;22.00;61.50;;;;;;5090010;28;20445;-87
2021/08/02 12:46:51;;;;;;;6.05;1.80;;;22.10;61.40;;;;;;5088620;28;20093;-88
2021/08/02 12:49:18;;;;;;;4.30;1.50;;;22.30;61.70;;;;;;5090881;28;20052;-89
2021/08/02 12:51:45;;;;;;;5.78;1.90;;;22.40;61.60;;;;;;5089856;28;20391;-88
2021/08/02 12:54:15;;;;;;;5.55;1.58;;;22.50;61.30;;;;;;5089343;28;20040;-86